Bard, New Mexico
Current Conditions -  °F | °C
As of 6:53 AM on Thursday 18 Dec 2014 (Local Time) from KTCC Reporting Station
Moderate Fog Moderate Fog  
Wind Chill: 29°   Ceiling: 200
Heat Index: 29°   Visibility: 0.25mi
Dew Point: 27°   Wind: 0mph
Humidity: 92%   Direction: NA
Pressure: 30.06"   Gusts: NA
Location:  35.13°N, 103.25°W
Report Text: KTCC 181353Z AUTO 00000KT 1/4SM FZFG VV002 M02/M03 A3006 RMK AO2 SLP179 I1003 T10171028
Loading
Personal Weather Stations






























Interactive Weather Map New forecast layout! Learn more

10-Day Weather Forecast

Advertisements
Track Severe Weather on mobile